sensor_id;sensor_type;location;lat;lon;timestamp;temperature;humidity
59505;DHT22;45321;53.200;5.814;2023-11-19T00:00:50;12.00;96.70
59505;DHT22;45321;53.200;5.814;2023-11-19T00:03:16;12.00;96.70
59505;DHT22;45321;53.200;5.814;2023-11-19T00:05:43;12.00;96.70
59505;DHT22;45321;53.200;5.814;2023-11-19T00:08:10;12.00;96.70
59505;DHT22;45321;53.200;5.814;2023-11-19T00:10:35;12.00;96.70
59505;DHT22;45321;53.200;5.814;2023-11-19T00:13:01;12.00;96.70
59505;DHT22;45321;53.200;5.814;2023-11-19T00:15:28;12.00;96.70
59505;DHT22;45321;53.200;5.814;2023-11-19T00:17:53;12.10;96.60
59505;DHT22;45321;53.200;5.814;2023-11-19T00:20:20;12.00;96.70
59505;DHT22;45321;53.200;5.814;2023-11-19T00:22:49;12.10;96.70
59505;DHT22;45321;53.200;5.814;2023-11-19T00:25:18;12.10;96.70
59505;DHT22;45321;53.200;5.814;2023-11-19T00:27:44;12.10;96.70
59505;DHT22;45321;53.200;5.814;2023-11-19T00:30:10;12.20;96.70
59505;DHT22;45321;53.200;5.814;2023-11-19T00:32:36;12.20;96.70
59505;DHT22;45321;53.200;5.814;2023-11-19T00:35:04;12.20;96.60
59505;DHT22;45321;53.200;5.814;2023-11-19T00:37:31;12.20;96.60
59505;DHT22;45321;53.200;5.814;2023-11-19T00:39:57;12.20;96.60
59505;DHT22;45321;53.200;5.814;2023-11-19T00:42:24;12.20;96.60
59505;DHT22;45321;53.200;5.814;2023-11-19T00:44:50;12.30;96.50
59505;DHT22;45321;53.200;5.814;2023-11-19T00:47:16;12.30;96.50
59505;DHT22;45321;53.200;5.814;2023-11-19T00:49:42;12.30;96.50
59505;DHT22;45321;53.200;5.814;2023-11-19T00:52:08;12.30;96.50
59505;DHT22;45321;53.200;5.814;2023-11-19T00:54:34;12.30;96.50
59505;DHT22;45321;53.200;5.814;2023-11-19T00:57:00;12.30;96.50
59505;DHT22;45321;53.200;5.814;2023-11-19T00:59:27;12.30;96.50
59505;DHT22;45321;53.200;5.814;2023-11-19T01:01:54;12.30;96.40
59505;DHT22;45321;53.200;5.814;2023-11-19T01:04:20;12.30;96.40
59505;DHT22;45321;53.200;5.814;2023-11-19T01:06:46;12.30;96.40
59505;DHT22;45321;53.200;5.814;2023-11-19T01:09:11;12.30;96.40
59505;DHT22;45321;53.200;5.814;2023-11-19T01:11:37;12.30;96.30
59505;DHT22;45321;53.200;5.814;2023-11-19T01:14:03;12.30;96.30
59505;DHT22;45321;53.200;5.814;2023-11-19T01:16:28;12.30;96.30
59505;DHT22;45321;53.200;5.814;2023-11-19T01:18:55;12.30;96.30
59505;DHT22;45321;53.200;5.814;2023-11-19T01:21:21;12.30;96.20
59505;DHT22;45321;53.200;5.814;2023-11-19T01:23:47;12.20;96.20
59505;DHT22;45321;53.200;5.814;2023-11-19T01:26:13;12.30;96.20
59505;DHT22;45321;53.200;5.814;2023-11-19T01:28:41;12.30;96.20
59505;DHT22;45321;53.200;5.814;2023-11-19T01:31:15;12.30;96.20
59505;DHT22;45321;53.200;5.814;2023-11-19T01:33:40;12.30;96.20
59505;DHT22;45321;53.200;5.814;2023-11-19T01:36:07;12.30;96.10
59505;DHT22;45321;53.200;5.814;2023-11-19T01:38:34;12.30;96.10
59505;DHT22;45321;53.200;5.814;2023-11-19T01:41:00;12.30;96.10
59505;DHT22;45321;53.200;5.814;2023-11-19T01:43:36;12.20;96.00
59505;DHT22;45321;53.200;5.814;2023-11-19T01:46:03;12.20;96.00
59505;DHT22;45321;53.200;5.814;2023-11-19T01:48:30;12.20;96.00
59505;DHT22;45321;53.200;5.814;2023-11-19T01:50:57;12.20;95.90
59505;DHT22;45321;53.200;5.814;2023-11-19T01:53:23;12.20;95.90
59505;DHT22;45321;53.200;5.814;2023-11-19T01:55:49;12.10;95.80
59505;DHT22;45321;53.200;5.814;2023-11-19T01:58:15;12.10;95.80
59505;DHT22;45321;53.200;5.814;2023-11-19T02:00:42;12.10;95.80
59505;DHT22;45321;53.200;5.814;2023-11-19T02:03:08;12.10;95.70
59505;DHT22;45321;53.200;5.814;2023-11-19T02:05:35;12.00;95.70
59505;DHT22;45321;53.200;5.814;2023-11-19T02:08:01;12.00;95.70
59505;DHT22;45321;53.200;5.814;2023-11-19T02:10:28;12.00;95.70
59505;DHT22;45321;53.200;5.814;2023-11-19T02:12:53;12.00;95.70
59505;DHT22;45321;53.200;5.814;2023-11-19T02:15:20;12.00;95.60
59505;DHT22;45321;53.200;5.814;2023-11-19T02:17:50;12.00;95.60
59505;DHT22;45321;53.200;5.814;2023-11-19T02:20:16;11.90;95.60
59505;DHT22;45321;53.200;5.814;2023-11-19T02:22:42;11.90;95.50
59505;DHT22;45321;53.200;5.814;2023-11-19T02:25:19;11.90;95.50
59505;DHT22;45321;53.200;5.814;2023-11-19T02:27:54;11.90;95.40
59505;DHT22;45321;53.200;5.814;2023-11-19T02:30:22;11.90;95.40
59505;DHT22;45321;53.200;5.814;2023-11-19T02:32:55;11.90;95.40
59505;DHT22;45321;53.200;5.814;2023-11-19T02:35:27;11.90;95.30
59505;DHT22;45321;53.200;5.814;2023-11-19T02:37:54;11.90;95.30
59505;DHT22;45321;53.200;5.814;2023-11-19T02:40:20;11.90;95.30
59505;DHT22;45321;53.200;5.814;2023-11-19T02:42:49;11.90;95.20
59505;DHT22;45321;53.200;5.814;2023-11-19T02:45:15;11.90;95.20
59505;DHT22;45321;53.200;5.814;2023-11-19T02:47:41;11.90;95.10
59505;DHT22;45321;53.200;5.814;2023-11-19T02:50:09;11.90;95.10
59505;DHT22;45321;53.200;5.814;2023-11-19T02:52:46;12.00;95.10
59505;DHT22;45321;53.200;5.814;2023-11-19T02:55:12;12.00;95.00
59505;DHT22;45321;53.200;5.814;2023-11-19T02:57:41;12.00;94.90
59505;DHT22;45321;53.200;5.814;2023-11-19T03:00:18;12.10;94.90
59505;DHT22;45321;53.200;5.814;2023-11-19T03:02:46;12.10;94.90
59505;DHT22;45321;53.200;5.814;2023-11-19T03:05:16;12.10;94.90
59505;DHT22;45321;53.200;5.814;2023-11-19T03:07:43;12.10;94.80
59505;DHT22;45321;53.200;5.814;2023-11-19T03:10:10;12.10;94.70
59505;DHT22;45321;53.200;5.814;2023-11-19T03:12:39;12.10;94.70
59505;DHT22;45321;53.200;5.814;2023-11-19T03:15:06;12.20;94.70
59505;DHT22;45321;53.200;5.814;2023-11-19T03:17:33;12.20;94.70
59505;DHT22;45321;53.200;5.814;2023-11-19T03:20:00;12.20;94.80
59505;DHT22;45321;53.200;5.814;2023-11-19T03:22:26;12.20;94.80
59505;DHT22;45321;53.200;5.814;2023-11-19T03:24:52;12.20;94.70
59505;DHT22;45321;53.200;5.814;2023-11-19T03:27:17;12.20;94.70
59505;DHT22;45321;53.200;5.814;2023-11-19T03:29:43;12.20;94.70
59505;DHT22;45321;53.200;5.814;2023-11-19T03:32:09;12.30;94.70
59505;DHT22;45321;53.200;5.814;2023-11-19T03:34:34;12.30;94.60
59505;DHT22;45321;53.200;5.814;2023-11-19T03:37:00;12.30;94.50
59505;DHT22;45321;53.200;5.814;2023-11-19T03:39:26;12.30;94.40
59505;DHT22;45321;53.200;5.814;2023-11-19T03:41:52;12.30;94.30
59505;DHT22;45321;53.200;5.814;2023-11-19T03:44:18;12.30;94.10
59505;DHT22;45321;53.200;5.814;2023-11-19T03:46:44;12.20;93.90
59505;DHT22;45321;53.200;5.814;2023-11-19T03:49:11;12.20;93.80
59505;DHT22;45321;53.200;5.814;2023-11-19T03:51:37;12.20;93.50
59505;DHT22;45321;53.200;5.814;2023-11-19T03:54:03;12.10;93.30
59505;DHT22;45321;53.200;5.814;2023-11-19T03:56:29;12.10;93.10
59505;DHT22;45321;53.200;5.814;2023-11-19T03:58:56;12.10;92.90
59505;DHT22;45321;53.200;5.814;2023-11-19T04:01:22;12.00;92.90
59505;DHT22;45321;53.200;5.814;2023-11-19T04:03:47;12.00;92.70
59505;DHT22;45321;53.200;5.814;2023-11-19T04:06:13;11.90;92.70
59505;DHT22;45321;53.200;5.814;2023-11-19T04:08:39;11.90;92.60
59505;DHT22;45321;53.200;5.814;2023-11-19T04:11:05;11.90;92.60
59505;DHT22;45321;53.200;5.814;2023-11-19T04:13:31;11.80;92.60
59505;DHT22;45321;53.200;5.814;2023-11-19T04:15:57;11.80;92.70
59505;DHT22;45321;53.200;5.814;2023-11-19T04:18:22;11.80;92.80
59505;DHT22;45321;53.200;5.814;2023-11-19T04:20:49;11.80;92.70
59505;DHT22;45321;53.200;5.814;2023-11-19T04:23:15;11.80;92.70
59505;DHT22;45321;53.200;5.814;2023-11-19T04:25:41;11.80;92.70
59505;DHT22;45321;53.200;5.814;2023-11-19T04:28:07;11.80;92.50
59505;DHT22;45321;53.200;5.814;2023-11-19T04:30:33;11.90;92.50
59505;DHT22;45321;53.200;5.814;2023-11-19T04:32:59;11.90;92.40
59505;DHT22;45321;53.200;5.814;2023-11-19T04:35:25;11.90;92.30
59505;DHT22;45321;53.200;5.814;2023-11-19T04:37:51;11.90;92.20
59505;DHT22;45321;53.200;5.814;2023-11-19T04:40:17;11.90;92.20
59505;DHT22;45321;53.200;5.814;2023-11-19T04:42:48;11.90;92.20
59505;DHT22;45321;53.200;5.814;2023-11-19T04:45:14;11.90;92.20
59505;DHT22;45321;53.200;5.814;2023-11-19T04:47:44;11.90;92.10
59505;DHT22;45321;53.200;5.814;2023-11-19T04:50:10;11.90;92.00
59505;DHT22;45321;53.200;5.814;2023-11-19T04:52:39;12.00;92.00
59505;DHT22;45321;53.200;5.814;2023-11-19T04:55:12;11.90;91.90
59505;DHT22;45321;53.200;5.814;2023-11-19T04:57:39;12.00;91.90
59505;DHT22;45321;53.200;5.814;2023-11-19T05:00:06;12.00;91.70
59505;DHT22;45321;53.200;5.814;2023-11-19T05:02:34;12.00;91.70
59505;DHT22;45321;53.200;5.814;2023-11-19T05:05:01;12.00;91.50
59505;DHT22;45321;53.200;5.814;2023-11-19T05:07:26;11.90;91.50
59505;DHT22;45321;53.200;5.814;2023-11-19T05:09:52;11.90;91.50
59505;DHT22;45321;53.200;5.814;2023-11-19T05:12:18;11.90;91.40
59505;DHT22;45321;53.200;5.814;2023-11-19T05:14:44;11.90;91.40
59505;DHT22;45321;53.200;5.814;2023-11-19T05:17:15;12.00;91.40
59505;DHT22;45321;53.200;5.814;2023-11-19T05:19:40;11.90;91.40
59505;DHT22;45321;53.200;5.814;2023-11-19T05:22:06;11.90;91.30
59505;DHT22;45321;53.200;5.814;2023-11-19T05:24:33;11.90;91.30
59505;DHT22;45321;53.200;5.814;2023-11-19T05:26:59;11.90;91.30
59505;DHT22;45321;53.200;5.814;2023-11-19T05:29:25;11.80;91.20
59505;DHT22;45321;53.200;5.814;2023-11-19T05:31:50;11.80;91.10
59505;DHT22;45321;53.200;5.814;2023-11-19T05:34:16;11.80;91.10
59505;DHT22;45321;53.200;5.814;2023-11-19T05:36:42;11.80;90.80
59505;DHT22;45321;53.200;5.814;2023-11-19T05:39:07;11.80;90.80
59505;DHT22;45321;53.200;5.814;2023-11-19T05:41:33;11.80;90.80
59505;DHT22;45321;53.200;5.814;2023-11-19T05:43:59;11.90;90.80
59505;DHT22;45321;53.200;5.814;2023-11-19T05:46:24;11.80;90.60
59505;DHT22;45321;53.200;5.814;2023-11-19T05:48:52;11.80;90.50
59505;DHT22;45321;53.200;5.814;2023-11-19T05:51:18;11.80;90.50
59505;DHT22;45321;53.200;5.814;2023-11-19T05:53:44;11.90;90.30
59505;DHT22;45321;53.200;5.814;2023-11-19T05:56:11;11.90;90.20
59505;DHT22;45321;53.200;5.814;2023-11-19T05:58:37;11.90;90.20
59505;DHT22;45321;53.200;5.814;2023-11-19T06:01:03;11.90;90.20
59505;DHT22;45321;53.200;5.814;2023-11-19T06:03:30;11.80;90.30
59505;DHT22;45321;53.200;5.814;2023-11-19T06:05:55;11.90;90.30
59505;DHT22;45321;53.200;5.814;2023-11-19T06:08:21;11.90;90.30
59505;DHT22;45321;53.200;5.814;2023-11-19T06:10:47;11.80;90.30
59505;DHT22;45321;53.200;5.814;2023-11-19T06:13:13;11.90;90.40
59505;DHT22;45321;53.200;5.814;2023-11-19T06:15:42;11.90;90.30
59505;DHT22;45321;53.200;5.814;2023-11-19T06:18:08;11.80;90.20
59505;DHT22;45321;53.200;5.814;2023-11-19T06:20:34;11.80;90.20
59505;DHT22;45321;53.200;5.814;2023-11-19T06:23:00;11.90;90.10
59505;DHT22;45321;53.200;5.814;2023-11-19T06:25:26;11.80;90.10
59505;DHT22;45321;53.200;5.814;2023-11-19T06:27:52;11.90;90.10
59505;DHT22;45321;53.200;5.814;2023-11-19T06:30:18;11.80;89.90
59505;DHT22;45321;53.200;5.814;2023-11-19T06:32:44;11.80;89.90
59505;DHT22;45321;53.200;5.814;2023-11-19T06:35:09;11.80;89.90
59505;DHT22;45321;53.200;5.814;2023-11-19T06:37:38;11.80;89.80
59505;DHT22;45321;53.200;5.814;2023-11-19T06:40:04;11.80;89.70
59505;DHT22;45321;53.200;5.814;2023-11-19T06:42:30;11.80;89.70
59505;DHT22;45321;53.200;5.814;2023-11-19T06:44:56;11.80;89.60
59505;DHT22;45321;53.200;5.814;2023-11-19T06:47:27;11.80;89.60
59505;DHT22;45321;53.200;5.814;2023-11-19T06:49:54;11.80;89.60
59505;DHT22;45321;53.200;5.814;2023-11-19T06:52:23;11.80;89.50
59505;DHT22;45321;53.200;5.814;2023-11-19T06:54:49;11.80;89.60
59505;DHT22;45321;53.200;5.814;2023-11-19T06:57:14;11.80;89.50
59505;DHT22;45321;53.200;5.814;2023-11-19T06:59:40;11.80;89.50
59505;DHT22;45321;53.200;5.814;2023-11-19T07:02:06;11.80;89.50
59505;DHT22;45321;53.200;5.814;2023-11-19T07:04:32;11.80;89.60
59505;DHT22;45321;53.200;5.814;2023-11-19T07:07:01;11.80;89.50
59505;DHT22;45321;53.200;5.814;2023-11-19T07:09:27;11.80;89.30
59505;DHT22;45321;53.200;5.814;2023-11-19T07:11:52;11.80;89.30
59505;DHT22;45321;53.200;5.814;2023-11-19T07:14:19;11.80;89.30
59505;DHT22;45321;53.200;5.814;2023-11-19T07:16:45;11.80;89.30
59505;DHT22;45321;53.200;5.814;2023-11-19T07:19:15;11.80;89.30
59505;DHT22;45321;53.200;5.814;2023-11-19T07:21:42;11.80;89.20
59505;DHT22;45321;53.200;5.814;2023-11-19T07:24:12;11.80;89.20
59505;DHT22;45321;53.200;5.814;2023-11-19T07:26:46;11.80;89.30
59505;DHT22;45321;53.200;5.814;2023-11-19T07:29:15;11.80;89.20
59505;DHT22;45321;53.200;5.814;2023-11-19T07:31:42;11.80;89.20
59505;DHT22;45321;53.200;5.814;2023-11-19T07:34:10;11.80;89.20
59505;DHT22;45321;53.200;5.814;2023-11-19T07:36:37;11.80;89.20
59505;DHT22;45321;53.200;5.814;2023-11-19T07:39:04;11.80;89.10
59505;DHT22;45321;53.200;5.814;2023-11-19T07:41:31;11.80;89.10
59505;DHT22;45321;53.200;5.814;2023-11-19T07:43:56;11.80;89.10
59505;DHT22;45321;53.200;5.814;2023-11-19T07:46:22;11.80;89.10
59505;DHT22;45321;53.200;5.814;2023-11-19T07:48:48;11.80;89.00
59505;DHT22;45321;53.200;5.814;2023-11-19T07:51:14;11.80;89.00
59505;DHT22;45321;53.200;5.814;2023-11-19T07:53:41;11.80;88.90
59505;DHT22;45321;53.200;5.814;2023-11-19T07:56:07;11.80;88.90
59505;DHT22;45321;53.200;5.814;2023-11-19T07:58:33;11.90;88.90
59505;DHT22;45321;53.200;5.814;2023-11-19T08:01:00;11.90;88.80
59505;DHT22;45321;53.200;5.814;2023-11-19T08:03:26;11.90;88.80
59505;DHT22;45321;53.200;5.814;2023-11-19T08:05:51;11.90;88.80
59505;DHT22;45321;53.200;5.814;2023-11-19T08:08:17;11.90;88.90
59505;DHT22;45321;53.200;5.814;2023-11-19T08:10:43;11.90;88.90
59505;DHT22;45321;53.200;5.814;2023-11-19T08:13:11;11.90;88.90
59505;DHT22;45321;53.200;5.814;2023-11-19T08:15:36;11.90;88.90
59505;DHT22;45321;53.200;5.814;2023-11-19T08:18:02;11.90;88.80
59505;DHT22;45321;53.200;5.814;2023-11-19T08:20:28;12.00;88.90
59505;DHT22;45321;53.200;5.814;2023-11-19T08:22:54;12.00;88.90
59505;DHT22;45321;53.200;5.814;2023-11-19T08:25:20;12.00;88.80
59505;DHT22;45321;53.200;5.814;2023-11-19T08:27:45;12.00;88.80
59505;DHT22;45321;53.200;5.814;2023-11-19T08:30:12;12.00;88.80
59505;DHT22;45321;53.200;5.814;2023-11-19T08:32:38;12.00;88.70
59505;DHT22;45321;53.200;5.814;2023-11-19T08:35:04;12.10;88.70
59505;DHT22;45321;53.200;5.814;2023-11-19T08:37:29;12.00;88.70
59505;DHT22;45321;53.200;5.814;2023-11-19T08:39:55;12.10;88.70
59505;DHT22;45321;53.200;5.814;2023-11-19T08:42:21;12.10;88.70
59505;DHT22;45321;53.200;5.814;2023-11-19T08:44:50;12.10;88.80
59505;DHT22;45321;53.200;5.814;2023-11-19T08:47:19;12.10;88.80
59505;DHT22;45321;53.200;5.814;2023-11-19T08:49:45;12.00;88.70
59505;DHT22;45321;53.200;5.814;2023-11-19T08:52:11;12.10;88.80
59505;DHT22;45321;53.200;5.814;2023-11-19T08:54:37;12.10;88.80
59505;DHT22;45321;53.200;5.814;2023-11-19T08:57:04;12.10;88.70
59505;DHT22;45321;53.200;5.814;2023-11-19T08:59:30;12.10;88.60
59505;DHT22;45321;53.200;5.814;2023-11-19T09:01:56;12.20;88.40
59505;DHT22;45321;53.200;5.814;2023-11-19T09:04:21;12.20;88.40
59505;DHT22;45321;53.200;5.814;2023-11-19T09:06:50;12.20;88.50
59505;DHT22;45321;53.200;5.814;2023-11-19T09:09:15;12.30;88.50
59505;DHT22;45321;53.200;5.814;2023-11-19T09:11:41;12.30;88.50
59505;DHT22;45321;53.200;5.814;2023-11-19T09:14:08;12.30;88.50
59505;DHT22;45321;53.200;5.814;2023-11-19T09:16:33;12.30;88.40
59505;DHT22;45321;53.200;5.814;2023-11-19T09:19:00;12.40;88.10
59505;DHT22;45321;53.200;5.814;2023-11-19T09:21:28;12.40;88.00
59505;DHT22;45321;53.200;5.814;2023-11-19T09:23:57;12.50;88.00
59505;DHT22;45321;53.200;5.814;2023-11-19T09:26:23;12.60;88.00
59505;DHT22;45321;53.200;5.814;2023-11-19T09:28:49;12.60;87.60
59505;DHT22;45321;53.200;5.814;2023-11-19T09:31:16;12.60;87.60
59505;DHT22;45321;53.200;5.814;2023-11-19T09:33:42;12.70;87.50
59505;DHT22;45321;53.200;5.814;2023-11-19T09:36:08;12.60;87.60
59505;DHT22;45321;53.200;5.814;2023-11-19T09:38:34;12.70;87.30
59505;DHT22;45321;53.200;5.814;2023-11-19T09:41:05;12.70;87.30
59505;DHT22;45321;53.200;5.814;2023-11-19T09:43:34;12.80;87.20
59505;DHT22;45321;53.200;5.814;2023-11-19T09:46:06;12.80;87.10
59505;DHT22;45321;53.200;5.814;2023-11-19T09:48:35;12.70;87.10
59505;DHT22;45321;53.200;5.814;2023-11-19T09:51:04;12.80;87.00
59505;DHT22;45321;53.200;5.814;2023-11-19T09:53:30;12.80;87.10
59505;DHT22;45321;53.200;5.814;2023-11-19T09:55:56;12.80;87.00
59505;DHT22;45321;53.200;5.814;2023-11-19T09:58:22;12.80;87.00
59505;DHT22;45321;53.200;5.814;2023-11-19T10:00:49;12.80;87.00
59505;DHT22;45321;53.200;5.814;2023-11-19T10:03:15;12.80;87.10
59505;DHT22;45321;53.200;5.814;2023-11-19T10:05:41;12.80;87.00
59505;DHT22;45321;53.200;5.814;2023-11-19T10:08:07;12.80;87.20
59505;DHT22;45321;53.200;5.814;2023-11-19T10:10:39;12.80;87.00
59505;DHT22;45321;53.200;5.814;2023-11-19T10:13:05;12.80;87.00
59505;DHT22;45321;53.200;5.814;2023-11-19T10:15:36;12.80;87.00
59505;DHT22;45321;53.200;5.814;2023-11-19T10:18:02;12.80;87.00
59505;DHT22;45321;53.200;5.814;2023-11-19T10:20:36;12.80;87.00
59505;DHT22;45321;53.200;5.814;2023-11-19T10:23:02;12.80;86.90
59505;DHT22;45321;53.200;5.814;2023-11-19T10:25:29;12.90;86.90
59505;DHT22;45321;53.200;5.814;2023-11-19T10:27:56;12.90;86.60
59505;DHT22;45321;53.200;5.814;2023-11-19T10:33:10;13.00;86.40
59505;DHT22;45321;53.200;5.814;2023-11-19T10:35:56;13.00;86.40
59505;DHT22;45321;53.200;5.814;2023-11-19T10:38:28;13.00;86.20
59505;DHT22;45321;53.200;5.814;2023-11-19T10:40:54;13.00;86.10
59505;DHT22;45321;53.200;5.814;2023-11-19T10:43:21;13.00;86.10
59505;DHT22;45321;53.200;5.814;2023-11-19T10:45:48;13.00;86.00
59505;DHT22;45321;53.200;5.814;2023-11-19T10:48:15;13.00;85.80
59505;DHT22;45321;53.200;5.814;2023-11-19T10:50:42;13.00;86.00
59505;DHT22;45321;53.200;5.814;2023-11-19T10:53:12;13.00;85.90
59505;DHT22;45321;53.200;5.814;2023-11-19T10:55:47;13.00;85.80
59505;DHT22;45321;53.200;5.814;2023-11-19T10:58:16;13.00;85.80
59505;DHT22;45321;53.200;5.814;2023-11-19T11:00:48;13.00;85.60
59505;DHT22;45321;53.200;5.814;2023-11-19T11:03:18;13.10;85.70
59505;DHT22;45321;53.200;5.814;2023-11-19T11:05:47;13.00;85.40
59505;DHT22;45321;53.200;5.814;2023-11-19T11:08:13;13.00;85.70
59505;DHT22;45321;53.200;5.814;2023-11-19T11:10:43;13.10;85.70
59505;DHT22;45321;53.200;5.814;2023-11-19T11:13:09;13.00;85.70
59505;DHT22;45321;53.200;5.814;2023-11-19T11:15:36;13.10;85.80
59505;DHT22;45321;53.200;5.814;2023-11-19T11:18:03;13.00;85.90
59505;DHT22;45321;53.200;5.814;2023-11-19T11:20:31;13.00;85.90
59505;DHT22;45321;53.200;5.814;2023-11-19T11:35:21;13.20;85.80
59505;DHT22;45321;53.200;5.814;2023-11-19T11:37:56;13.20;85.60
59505;DHT22;45321;53.200;5.814;2023-11-19T11:40:24;13.20;85.60
59505;DHT22;45321;53.200;5.814;2023-11-19T11:42:52;13.30;85.60
59505;DHT22;45321;53.200;5.814;2023-11-19T11:45:18;13.30;85.50
59505;DHT22;45321;53.200;5.814;2023-11-19T11:50:20;13.60;85.10
59505;DHT22;45321;53.200;5.814;2023-11-19T11:55:27;13.80;84.30
59505;DHT22;45321;53.200;5.814;2023-11-19T11:57:53;13.80;84.10
59505;DHT22;45321;53.200;5.814;2023-11-19T12:00:39;13.90;83.80
59505;DHT22;45321;53.200;5.814;2023-11-19T12:03:08;13.80;84.00
59505;DHT22;45321;53.200;5.814;2023-11-19T12:05:40;13.80;84.00
59505;DHT22;45321;53.200;5.814;2023-11-19T12:08:07;13.80;84.00
59505;DHT22;45321;53.200;5.814;2023-11-19T12:10:46;13.80;83.80
59505;DHT22;45321;53.200;5.814;2023-11-19T12:13:13;13.70;83.90
59505;DHT22;45321;53.200;5.814;2023-11-19T12:18:26;13.70;84.20
59505;DHT22;45321;53.200;5.814;2023-11-19T12:20:52;13.60;84.00
59505;DHT22;45321;53.200;5.814;2023-11-19T12:23:17;13.60;84.10
59505;DHT22;45321;53.200;5.814;2023-11-19T12:25:44;13.60;83.90
59505;DHT22;45321;53.200;5.814;2023-11-19T12:28:15;13.70;83.60
59505;DHT22;45321;53.200;5.814;2023-11-19T12:30:45;13.70;83.40
59505;DHT22;45321;53.200;5.814;2023-11-19T12:33:12;13.70;83.50
59505;DHT22;45321;53.200;5.814;2023-11-19T12:35:41;13.70;83.30
59505;DHT22;45321;53.200;5.814;2023-11-19T12:38:17;13.70;83.60
59505;DHT22;45321;53.200;5.814;2023-11-19T12:40:43;13.70;83.30
59505;DHT22;45321;53.200;5.814;2023-11-19T12:43:09;13.80;83.40
59505;DHT22;45321;53.200;5.814;2023-11-19T12:45:35;13.80;83.10
59505;DHT22;45321;53.200;5.814;2023-11-19T12:48:08;13.80;83.30
59505;DHT22;45321;53.200;5.814;2023-11-19T12:50:56;13.90;82.90
59505;DHT22;45321;53.200;5.814;2023-11-19T12:53:27;14.00;82.90
59505;DHT22;45321;53.200;5.814;2023-11-19T12:55:54;14.00;82.40
59505;DHT22;45321;53.200;5.814;2023-11-19T12:58:33;14.00;82.50
59505;DHT22;45321;53.200;5.814;2023-11-19T13:01:04;14.00;82.50
59505;DHT22;45321;53.200;5.814;2023-11-19T13:03:34;13.90;82.50
59505;DHT22;45321;53.200;5.814;2023-11-19T13:06:09;13.90;82.50
59505;DHT22;45321;53.200;5.814;2023-11-19T13:08:40;13.80;82.60
59505;DHT22;45321;53.200;5.814;2023-11-19T13:11:06;13.80;82.80
59505;DHT22;45321;53.200;5.814;2023-11-19T13:13:53;13.80;82.80
59505;DHT22;45321;53.200;5.814;2023-11-19T13:16:18;13.70;82.90
59505;DHT22;45321;53.200;5.814;2023-11-19T13:18:44;13.60;83.10
59505;DHT22;45321;53.200;5.814;2023-11-19T13:21:10;13.50;83.20
59505;DHT22;45321;53.200;5.814;2023-11-19T13:23:36;13.50;83.20
59505;DHT22;45321;53.200;5.814;2023-11-19T13:26:01;13.40;83.40
59505;DHT22;45321;53.200;5.814;2023-11-19T13:28:29;13.30;83.50
59505;DHT22;45321;53.200;5.814;2023-11-19T13:30:55;13.30;83.50
59505;DHT22;45321;53.200;5.814;2023-11-19T13:33:20;13.30;83.70
59505;DHT22;45321;53.200;5.814;2023-11-19T13:35:46;13.30;83.80
59505;DHT22;45321;53.200;5.814;2023-11-19T13:38:12;13.30;84.50
59505;DHT22;45321;53.200;5.814;2023-11-19T13:40:38;13.20;84.90
59505;DHT22;45321;53.200;5.814;2023-11-19T13:43:06;13.20;85.20
59505;DHT22;45321;53.200;5.814;2023-11-19T13:45:33;13.10;85.20
59505;DHT22;45321;53.200;5.814;2023-11-19T13:47:58;13.00;85.30
59505;DHT22;45321;53.200;5.814;2023-11-19T13:50:24;13.00;85.50
59505;DHT22;45321;53.200;5.814;2023-11-19T13:52:50;13.00;85.20
59505;DHT22;45321;53.200;5.814;2023-11-19T13:55:16;13.00;85.10
59505;DHT22;45321;53.200;5.814;2023-11-19T13:57:42;13.00;84.90
59505;DHT22;45321;53.200;5.814;2023-11-19T14:00:09;13.00;84.80
59505;DHT22;45321;53.200;5.814;2023-11-19T14:02:47;13.00;84.80
59505;DHT22;45321;53.200;5.814;2023-11-19T14:05:15;13.00;84.80
59505;DHT22;45321;53.200;5.814;2023-11-19T14:07:43;13.00;84.60
59505;DHT22;45321;53.200;5.814;2023-11-19T14:10:10;13.00;84.70
59505;DHT22;45321;53.200;5.814;2023-11-19T14:12:39;13.00;84.60
59505;DHT22;45321;53.200;5.814;2023-11-19T14:15:09;13.00;84.50
59505;DHT22;45321;53.200;5.814;2023-11-19T14:17:36;12.90;84.60
59505;DHT22;45321;53.200;5.814;2023-11-19T14:20:05;12.90;84.60
59505;DHT22;45321;53.200;5.814;2023-11-19T14:22:54;12.90;84.50
59505;DHT22;45321;53.200;5.814;2023-11-19T14:25:20;12.90;84.60
59505;DHT22;45321;53.200;5.814;2023-11-19T14:27:47;12.90;84.50
59505;DHT22;45321;53.200;5.814;2023-11-19T14:30:13;12.90;84.60
59505;DHT22;45321;53.200;5.814;2023-11-19T14:32:40;12.80;84.70
59505;DHT22;45321;53.200;5.814;2023-11-19T14:35:08;12.90;84.70
59505;DHT22;45321;53.200;5.814;2023-11-19T14:37:34;12.80;84.60
59505;DHT22;45321;53.200;5.814;2023-11-19T14:40:00;12.80;84.60
59505;DHT22;45321;53.200;5.814;2023-11-19T14:42:27;12.90;84.60
59505;DHT22;45321;53.200;5.814;2023-11-19T14:44:53;12.80;84.60
59505;DHT22;45321;53.200;5.814;2023-11-19T14:47:21;12.80;84.60
59505;DHT22;45321;53.200;5.814;2023-11-19T14:49:47;12.80;84.70
59505;DHT22;45321;53.200;5.814;2023-11-19T14:52:13;12.80;84.90
59505;DHT22;45321;53.200;5.814;2023-11-19T14:54:39;12.80;84.70
59505;DHT22;45321;53.200;5.814;2023-11-19T14:57:07;12.80;84.70
59505;DHT22;45321;53.200;5.814;2023-11-19T14:59:36;12.80;84.60
59505;DHT22;45321;53.200;5.814;2023-11-19T15:02:05;12.80;84.70
59505;DHT22;45321;53.200;5.814;2023-11-19T15:04:31;12.80;84.80
59505;DHT22;45321;53.200;5.814;2023-11-19T15:06:57;12.80;84.70
59505;DHT22;45321;53.200;5.814;2023-11-19T15:09:24;12.70;84.80
59505;DHT22;45321;53.200;5.814;2023-11-19T15:11:50;12.70;84.70
59505;DHT22;45321;53.200;5.814;2023-11-19T15:14:16;12.70;84.90
59505;DHT22;45321;53.200;5.814;2023-11-19T15:16:45;12.70;85.10
59505;DHT22;45321;53.200;5.814;2023-11-19T15:19:12;12.70;85.30
59505;DHT22;45321;53.200;5.814;2023-11-19T15:21:43;12.70;85.60
59505;DHT22;45321;53.200;5.814;2023-11-19T15:24:09;12.60;86.20
59505;DHT22;45321;53.200;5.814;2023-11-19T15:26:37;12.50;86.70
59505;DHT22;45321;53.200;5.814;2023-11-19T15:29:04;12.40;87.20
59505;DHT22;45321;53.200;5.814;2023-11-19T15:31:30;12.30;87.60
59505;DHT22;45321;53.200;5.814;2023-11-19T15:33:56;12.30;88.20
59505;DHT22;45321;53.200;5.814;2023-11-19T15:36:22;12.30;88.50
59505;DHT22;45321;53.200;5.814;2023-11-19T15:38:48;12.20;88.60
59505;DHT22;45321;53.200;5.814;2023-11-19T15:41:14;12.20;88.90
59505;DHT22;45321;53.200;5.814;2023-11-19T15:43:40;12.20;89.10
59505;DHT22;45321;53.200;5.814;2023-11-19T15:46:09;12.20;89.40
59505;DHT22;45321;53.200;5.814;2023-11-19T15:48:36;12.20;89.20
59505;DHT22;45321;53.200;5.814;2023-11-19T15:51:02;12.10;89.30
59505;DHT22;45321;53.200;5.814;2023-11-19T15:53:31;12.10;89.30